Lyons, CO

11:02 AM MDT on October 24, 2014 (GMT -0600)
Erie Municipal Airport | Change Station
CLOSE
Current Station
Airport
Location: Erie,
Elevation: 5128 ft
Nearby Weather Stations

Elev 5128 ft 40.01 °N, 105.05 °W | Updated 7 minutes ago

Clear
Clear
72 °F
Feels Like 72 °F
N
4
Wind Variable Wind from NNW

Today
High -- | Low -- °F
--% Chance of Precip.
Yesterday
High -- | Low -- °F
Precip. -- in
7:21 AM 6:08 PM
New Moon, 1% visible
Pressure 30.17 in
Visibility 10.0 miles
Clouds Clear
Dew Point 26 °F
Humidity 18%
Rainfall 0.00 in
Snow Depth 0 in , 1 in
UV 4 out of 12
Pollen 3.20 out of 12
Ozone Good
PM2.5 Moderate
Flu Activity Sporadic
METAR KEIK 241655Z AUTO 33003KT 10SM CLR 22/M03 A3017 RMK AO2 T02211034

More Conditions Fewer Conditions

Pressure 30.17 in
Visibility 10.0 miles
Clouds Clear
Dew Point 26 °F
Humidity 18%
Rainfall 0.00 in
Snow Depth 0 in , 1 in
UV 4 out of 12
Pollen 3.20 out of 12
Ozone Good
PM2.5 Moderate
Flu Activity Sporadic
METAR KEIK 241655Z AUTO 33003KT 10SM CLR 22/M03 A3017 RMK AO2 T02211034

More Conditions Fewer Conditions

10-Day Weather Forecast

Almanac

Astronomy

Oct. 24, 2014 Rise Set
Actual Time 7:21 AM MDT 6:08 PM MDT
Civil Twilight 6:53 AM MDT 6:36 PM MDT
Nautical Twilight 6:22 AM MDT 7:07 PM MDT
Astronomical Twilight 5:50 AM MDT 7:39 PM MDT
Moon 8:03 AM MDT 6:50 PM MDT
Length of Visible Light 11h 42m
Length of Day
10h 46m
Tomorrow will be 2m 27s shorter.
New Moon, 1% of the Moon is Illuminated
Today
New Moon
Oct 30
First Quarter
Nov 6
Full
Nov 14
Last Quarter
Nov 22
New

Today's Extremes

State Highs State Lows

Community

WunderPhotos

Upload Photos

1,764,613 photos uploaded!

WunderBlogs® & News

By Dr. Jeff Masters
Director of Meteorology, Weather Underground
By Kari Strenfel
Meteorologist, Weather Underground
By Christopher C. Burt
Weather Historian, Weather Underground
October 24, 2014
October 24, 2014
October 24, 2014

Nearby

Air Quality

  Air Quality AQ Index Pollutant
Yesterday Good
OZONE
Yesterday Good
PM10
Current Moderate
PM2.5
Current Good
OZONE
Friday Good
OZONE
Friday Good
PM2.5

Snow Depth

Station Depth Elevation
Copeland Lake 0 in 8600 ft
Wild Basin 1 in 9560 ft
University Camp 0 in 10300 ft
Willow Park 0 in 10700 ft
Lake Irene 0 in 10700 ft

Earthquake Activity

City Distance Mag. Time & Date
No recent earthquake activity has been reported nearby.
Minimum magnitude displayed is 2.5.

Coastal Water Temperatures

Place Temperature
No Stations Reporting

Nearby Weather Stations